createdAt,value
2018-02-21T00:02:20.924Z,52.40
2018-02-21T00:04:47.769Z,54.77
2018-02-21T00:07:14.418Z,53.33
2018-02-21T00:09:41.032Z,51.70
2018-02-21T00:12:07.638Z,53.60
2018-02-21T00:14:34.269Z,54.17
2018-02-21T00:17:00.877Z,53.50
2018-02-21T00:19:27.516Z,54.93
2018-02-21T00:21:54.276Z,54.67
2018-02-21T00:24:20.888Z,52.83
2018-02-21T00:26:47.513Z,53.83
2018-02-21T00:29:14.155Z,55.10
2018-02-21T00:31:40.804Z,51.30
2018-02-21T00:34:07.437Z,53.87
2018-02-21T00:36:34.029Z,53.10
2018-02-21T00:39:00.650Z,53.20
2018-02-21T00:41:27.269Z,52.87
2018-02-21T00:43:53.895Z,54.50
2018-02-21T00:46:20.503Z,54.53
2018-02-21T00:48:47.165Z,52.87
2018-02-21T00:51:13.788Z,53.60
2018-02-21T00:53:40.396Z,51.30
2018-02-21T00:56:07.062Z,54.90
2018-02-21T00:58:33.699Z,51.33
2018-02-21T01:01:00.314Z,51.57
2018-02-21T01:03:26.933Z,51.53
2018-02-21T01:05:53.519Z,48.93
2018-02-21T01:08:20.128Z,51.73
2018-02-21T01:10:46.792Z,53.17
2018-02-21T01:13:13.381Z,51.73
2018-02-21T01:15:40.028Z,48.87
2018-02-21T01:18:06.661Z,51.80
2018-02-21T01:20:33.260Z,49.70
2018-02-21T01:22:59.897Z,49.90
2018-02-21T01:25:26.513Z,52.23
2018-02-21T01:27:53.143Z,53.50
2018-02-21T01:30:19.752Z,52.87
2018-02-21T01:32:46.405Z,56.07
2018-02-21T01:35:13.040Z,51.23
2018-02-21T01:37:39.645Z,53.67
2018-02-21T01:40:06.271Z,53.60
2018-02-21T01:42:32.913Z,53.10
2018-02-21T01:44:59.516Z,53.03
2018-02-21T01:47:26.145Z,53.23
2018-02-21T01:49:52.780Z,54.10
2018-02-21T01:52:19.419Z,49.17
2018-02-21T01:54:46.056Z,53.80
2018-02-21T01:57:12.652Z,56.73
2018-02-21T01:59:39.270Z,55.83
2018-02-21T02:02:05.885Z,53.67
2018-02-21T02:04:32.503Z,57.70
2018-02-21T02:06:59.119Z,56.93
2018-02-21T02:09:25.736Z,56.80
2018-02-21T02:11:52.325Z,57.50
2018-02-21T02:14:18.936Z,56.77
2018-02-21T02:16:45.568Z,55.00
2018-02-21T02:19:12.183Z,58.07
2018-02-21T02:21:38.779Z,59.57
2018-02-21T02:24:05.640Z,58.87
2018-02-21T02:26:32.260Z,59.97
2018-02-21T02:28:59.012Z,60.63
2018-02-21T02:31:25.682Z,60.90
2018-02-21T02:33:52.266Z,59.10
2018-02-21T02:36:18.892Z,58.53
2018-02-21T02:38:51.432Z,62.10
2018-02-21T02:41:18.064Z,56.13
2018-02-21T02:43:44.672Z,61.43
2018-02-21T02:46:11.689Z,62.57
2018-02-21T02:48:38.324Z,57.93
2018-02-21T02:51:04.943Z,59.63
2018-02-21T02:53:31.556Z,64.97
2018-02-21T02:55:58.178Z,60.87
2018-02-21T02:58:24.810Z,60.97
2018-02-21T03:00:51.411Z,59.97
2018-02-21T03:03:18.037Z,61.00
2018-02-21T03:05:44.665Z,62.03
2018-02-21T03:08:11.294Z,60.17
2018-02-21T03:10:37.904Z,58.80
2018-02-21T03:13:04.528Z,58.43
2018-02-21T03:15:31.133Z,58.70
2018-02-21T03:17:57.771Z,60.20
2018-02-21T03:20:24.357Z,58.13
2018-02-21T03:22:50.976Z,56.00
2018-02-21T03:25:17.587Z,58.17
2018-02-21T03:27:44.223Z,57.20
2018-02-21T03:30:10.800Z,55.10
2018-02-21T03:32:37.463Z,56.90
2018-02-21T03:35:04.053Z,56.40
2018-02-21T03:37:30.677Z,55.70
2018-02-21T03:39:57.279Z,54.80
2018-02-21T03:42:23.899Z,53.93
2018-02-21T03:44:50.542Z,52.47
2018-02-21T03:47:17.187Z,52.90
2018-02-21T03:49:43.797Z,55.73
2018-02-21T03:52:10.419Z,53.80
2018-02-21T03:54:37.027Z,53.50
2018-02-21T03:57:03.612Z,52.37
2018-02-21T03:59:30.236Z,49.67
2018-02-21T04:01:56.841Z,52.30
2018-02-21T04:04:23.465Z,52.63
2018-02-21T04:06:50.073Z,54.40
2018-02-21T04:09:16.691Z,51.27
2018-02-21T04:11:43.295Z,55.00
2018-02-21T04:14:09.904Z,51.90
2018-02-21T04:16:36.519Z,51.23
2018-02-21T04:19:03.162Z,48.97
2018-02-21T04:21:29.771Z,48.47
2018-02-21T04:23:56.386Z,50.80
2018-02-21T04:26:23.466Z,52.20
2018-02-21T04:28:50.052Z,53.03
2018-02-21T04:31:16.677Z,52.57
2018-02-21T04:33:43.297Z,50.07
2018-02-21T04:36:09.919Z,48.57
2018-02-21T04:38:36.521Z,45.77
2018-02-21T04:41:03.123Z,50.40
2018-02-21T04:43:29.739Z,51.90
2018-02-21T04:45:56.431Z,52.70
2018-02-21T04:48:22.995Z,49.67
2018-02-21T04:50:49.688Z,47.00
2018-02-21T04:53:16.292Z,48.27
2018-02-21T04:55:59.596Z,52.20
2018-02-21T04:58:38.434Z,50.77
2018-02-21T05:01:05.065Z,50.17
2018-02-21T05:03:31.656Z,52.07
2018-02-21T05:05:58.295Z,49.30
2018-02-21T05:08:24.947Z,49.53
2018-02-21T05:10:51.591Z,52.53
2018-02-21T05:13:18.176Z,50.43
2018-02-21T05:15:45.038Z,49.90
2018-02-21T05:18:11.664Z,52.23
2018-02-21T05:20:38.301Z,51.17
2018-02-21T05:23:04.946Z,55.73
2018-02-21T05:25:31.572Z,50.20
2018-02-21T05:27:58.209Z,51.60
2018-02-21T05:30:24.847Z,53.00
2018-02-21T05:32:51.460Z,52.67
2018-02-21T05:35:18.069Z,51.67
2018-02-21T05:37:44.692Z,51.97
2018-02-21T05:40:11.350Z,51.33
2018-02-21T05:42:37.975Z,49.50
2018-02-21T05:45:04.589Z,52.17
2018-02-21T05:47:31.177Z,52.70
2018-02-21T05:49:57.857Z,51.60
2018-02-21T05:52:24.504Z,54.20
2018-02-21T05:54:51.203Z,52.80
2018-02-21T05:57:17.861Z,51.97
2018-02-21T05:59:44.480Z,54.23
2018-02-21T06:02:11.262Z,51.60
2018-02-21T06:04:38.049Z,52.67
2018-02-21T06:07:05.511Z,54.67
2018-02-21T06:09:32.151Z,51.57
2018-02-21T06:11:58.986Z,54.27
2018-02-21T06:14:25.648Z,54.27
2018-02-21T06:16:52.292Z,50.67
2018-02-21T06:19:18.988Z,52.83
2018-02-21T06:21:45.596Z,52.77
2018-02-21T06:24:12.587Z,51.87
2018-02-21T06:26:39.211Z,52.23
2018-02-21T06:29:05.857Z,50.50
2018-02-21T06:31:32.461Z,51.67
2018-02-21T06:33:59.071Z,49.97
2018-02-21T06:36:25.716Z,54.57
2018-02-21T06:38:52.320Z,49.73
2018-02-21T08:03:15.293Z,38.17
2018-02-21T08:05:41.914Z,43.20
2018-02-21T08:08:08.525Z,45.27
2018-02-21T08:10:35.175Z,47.93
2018-02-21T08:13:01.790Z,47.50
2018-02-21T08:15:28.458Z,46.90
2018-02-21T08:17:55.157Z,46.97
2018-02-21T08:20:21.752Z,45.33
2018-02-21T08:22:48.383Z,44.03
2018-02-21T08:25:15.021Z,46.00
2018-02-21T08:27:41.669Z,43.37
2018-02-21T08:30:08.312Z,41.57
2018-02-21T08:32:34.934Z,43.73
2018-02-21T08:35:01.524Z,41.70
2018-02-21T08:37:28.128Z,45.00
2018-02-21T08:39:54.824Z,43.63
2018-02-21T08:42:21.514Z,40.60
2018-02-21T08:44:48.129Z,45.70
2018-02-21T08:47:14.834Z,37.70
2018-02-21T08:49:41.446Z,41.83
2018-02-21T08:52:08.204Z,38.77
2018-02-21T08:54:34.793Z,42.90
2018-02-21T08:57:01.426Z,40.90
2018-02-21T08:59:28.048Z,42.33
2018-02-21T09:01:54.797Z,42.73
2018-02-21T09:04:21.632Z,40.93
2018-02-21T09:06:48.218Z,38.10
2018-02-21T09:09:14.881Z,39.00
2018-02-21T09:11:41.538Z,38.97
2018-02-21T09:14:08.220Z,37.47
2018-02-21T09:16:34.935Z,35.40
2018-02-21T09:19:01.475Z,40.47
2018-02-21T09:21:28.100Z,35.53
2018-02-21T09:23:54.713Z,37.83
2018-02-21T09:26:21.323Z,35.50
2018-02-21T09:28:47.974Z,34.77
2018-02-21T09:31:14.578Z,37.03
2018-02-21T09:33:41.190Z,37.50
2018-02-21T09:36:07.830Z,38.43
2018-02-21T09:38:34.460Z,37.20
2018-02-21T09:41:01.067Z,34.43
2018-02-21T09:43:27.694Z,36.13
2018-02-21T09:45:54.351Z,35.70
2018-02-21T09:48:20.982Z,37.03
2018-02-21T09:50:47.573Z,32.70
2018-02-21T09:53:14.207Z,33.97
2018-02-21T09:55:40.829Z,34.93
2018-02-21T09:58:07.472Z,35.00
2018-02-21T10:00:34.088Z,32.67
2018-02-21T10:03:00.733Z,33.20
2018-02-21T10:05:27.349Z,35.57
2018-02-21T10:07:53.976Z,33.83
2018-02-21T10:10:20.600Z,34.17
2018-02-21T10:12:47.212Z,33.17
2018-02-21T10:15:13.877Z,34.23
2018-02-21T10:17:40.692Z,32.40
2018-02-21T10:20:07.308Z,33.53
2018-02-21T10:22:33.904Z,34.10
2018-02-21T10:25:00.550Z,30.97
2018-02-21T10:27:27.263Z,29.87
2018-02-21T10:29:53.848Z,32.70
2018-02-21T10:32:20.500Z,31.27
2018-02-21T10:42:59.449Z,29.03
2018-02-21T10:45:26.048Z,29.60
2018-02-21T10:47:52.732Z,33.17
2018-02-21T10:50:19.324Z,33.93
2018-02-21T10:52:45.990Z,31.83
2018-02-21T10:55:12.599Z,32.00
2018-02-21T10:57:39.183Z,30.43
2018-02-21T11:00:05.791Z,32.20
2018-02-21T11:02:32.382Z,31.30
2018-02-21T11:04:59.022Z,31.33
2018-02-21T11:07:25.588Z,30.10
2018-02-21T11:09:52.229Z,32.70
2018-02-21T11:12:18.854Z,29.40
2018-02-21T11:14:45.458Z,31.70
2018-02-21T11:17:12.078Z,27.30
2018-02-21T11:19:38.701Z,27.40
2018-02-21T11:22:05.308Z,31.40
2018-02-21T11:24:31.944Z,29.33
2018-02-21T11:26:58.596Z,27.73
2018-02-21T11:29:25.237Z,27.00
2018-02-21T11:31:51.937Z,28.27
2018-02-21T11:34:18.510Z,27.50
2018-02-21T11:36:45.145Z,26.63
2018-02-21T11:39:11.731Z,27.17
2018-02-21T11:41:38.342Z,26.60
2018-02-21T11:44:04.952Z,23.97
2018-02-21T11:46:31.570Z,27.63
2018-02-21T11:48:58.170Z,26.00
2018-02-21T11:51:24.798Z,27.07
2018-02-21T11:53:51.440Z,26.10
2018-02-21T11:56:18.088Z,25.70
2018-02-21T11:58:44.752Z,26.50
2018-02-21T12:01:11.359Z,24.10
2018-02-21T12:03:37.986Z,26.70
2018-02-21T12:06:04.653Z,25.97
2018-02-21T12:08:31.267Z,25.90
2018-02-21T12:10:57.946Z,26.57
2018-02-21T12:13:24.608Z,26.70
2018-02-21T12:15:51.256Z,24.27
2018-02-21T12:18:17.944Z,25.23
2018-02-21T12:20:44.667Z,26.27
2018-02-21T12:23:11.343Z,24.90
2018-02-21T12:25:38.135Z,25.63
2018-02-21T12:28:04.765Z,25.07
2018-02-21T12:30:31.448Z,25.80
2018-02-21T12:32:58.045Z,22.60
2018-02-21T12:35:24.681Z,25.57
2018-02-21T12:37:51.327Z,24.20
2018-02-21T12:40:23.576Z,23.97
2018-02-21T12:42:50.205Z,24.23
2018-02-21T12:45:16.840Z,23.43
2018-02-21T12:47:43.534Z,23.67
2018-02-21T12:50:10.242Z,23.67
2018-02-21T12:52:36.840Z,23.67
2018-02-21T12:55:03.441Z,24.30
2018-02-21T12:57:30.072Z,22.87
2018-02-21T12:59:56.698Z,25.20
2018-02-21T13:02:33.255Z,22.90
2018-02-21T13:04:59.890Z,23.33
2018-02-21T13:07:26.505Z,22.33
2018-02-21T13:09:53.151Z,23.07
2018-02-21T13:12:19.776Z,21.50
2018-02-21T13:14:46.416Z,22.23
2018-02-21T13:17:13.038Z,22.73
2018-02-21T13:19:39.635Z,22.50
2018-02-21T13:22:06.280Z,22.17
2018-02-21T13:24:32.879Z,22.37
2018-02-21T13:26:59.523Z,21.50
2018-02-21T13:29:26.115Z,22.70
2018-02-21T13:31:52.753Z,22.70
2018-02-21T13:34:19.424Z,21.60
2018-02-21T13:36:46.033Z,22.73
2018-02-21T13:39:12.728Z,22.50
2018-02-21T13:41:39.359Z,22.07
2018-02-21T13:44:06.026Z,23.37
2018-02-21T13:46:32.842Z,20.70
2018-02-21T13:48:59.471Z,20.90
2018-02-21T13:51:26.107Z,20.80
2018-02-21T13:53:52.771Z,19.27
2018-02-21T13:56:19.373Z,21.70
2018-02-21T13:58:46.002Z,21.47
2018-02-21T14:01:12.628Z,20.10
2018-02-21T14:03:39.239Z,20.30
2018-02-21T14:06:06.042Z,19.40
2018-02-21T14:08:32.682Z,20.83
2018-02-21T14:10:59.451Z,20.43
2018-02-21T14:13:26.040Z,20.80
2018-02-21T14:15:52.660Z,21.73
2018-02-21T14:18:19.279Z,20.20
2018-02-21T14:20:45.935Z,20.00
2018-02-21T14:23:12.529Z,21.00
2018-02-21T14:25:39.132Z,21.70
2018-02-21T14:28:05.859Z,20.30
2018-02-21T14:30:32.660Z,17.23
2018-02-21T14:32:59.529Z,20.67
2018-02-21T14:35:26.249Z,21.00
2018-02-21T14:37:52.867Z,17.90
2018-02-21T14:40:19.590Z,21.70
2018-02-21T14:42:46.263Z,21.13
2018-02-21T14:45:12.914Z,22.60
2018-02-21T14:47:39.572Z,21.07
2018-02-21T14:50:06.168Z,21.70
2018-02-21T14:52:32.799Z,22.80
2018-02-21T14:54:59.427Z,22.33
2018-02-21T14:57:26.030Z,18.63
2018-02-21T14:59:52.817Z,19.60
2018-02-21T15:02:19.461Z,16.33
2018-02-21T15:04:46.056Z,18.60
2018-02-21T15:07:12.719Z,19.80
2018-02-21T15:09:39.368Z,15.80
2018-02-21T15:12:05.959Z,17.40
2018-02-21T15:14:32.585Z,17.37
2018-02-21T15:16:59.266Z,18.80
2018-02-21T15:19:26.056Z,18.77
2018-02-21T15:21:52.709Z,17.97
2018-02-21T15:24:19.436Z,17.57
2018-02-21T15:26:46.116Z,18.83
2018-02-21T15:29:12.795Z,18.70
2018-02-21T15:31:39.456Z,18.60
2018-02-21T15:34:06.074Z,18.90
2018-02-21T15:36:32.712Z,19.73
2018-02-21T15:38:59.338Z,19.67
2018-02-21T15:41:25.976Z,20.07
2018-02-21T15:43:52.575Z,19.90
2018-02-21T15:46:19.199Z,19.87
2018-02-21T15:48:45.857Z,20.87
2018-02-21T15:51:12.478Z,19.00
2018-02-21T15:53:39.091Z,20.47
2018-02-21T15:56:05.733Z,18.37
2018-02-21T15:58:32.404Z,18.40
2018-02-21T16:00:59.062Z,17.83
2018-02-21T16:03:25.710Z,19.10
2018-02-21T16:05:52.338Z,18.47
2018-02-21T16:08:19.074Z,16.57
2018-02-21T16:10:45.712Z,18.13
2018-02-21T16:13:12.320Z,17.20
2018-02-21T16:15:38.936Z,15.00
2018-02-21T16:18:05.593Z,16.47
2018-02-21T16:20:32.255Z,15.90
2018-02-21T16:22:58.908Z,15.30
2018-02-21T16:25:25.529Z,15.20
2018-02-21T16:27:52.307Z,15.67
2018-02-21T16:30:18.888Z,16.60
2018-02-21T16:32:45.541Z,15.20
2018-02-21T16:35:12.164Z,14.73
2018-02-21T16:37:38.759Z,15.90
2018-02-21T16:40:05.428Z,15.77
2018-02-21T16:42:32.063Z,16.00
2018-02-21T16:44:58.719Z,15.40
2018-02-21T16:47:25.328Z,15.20
2018-02-21T16:49:51.965Z,15.50
2018-02-21T16:52:18.774Z,15.53
2018-02-21T16:54:45.412Z,16.63
2018-02-21T16:57:12.152Z,17.73
2018-02-21T16:59:38.786Z,15.87
2018-02-21T17:02:05.536Z,17.50
2018-02-21T17:04:32.171Z,17.17
2018-02-21T17:06:58.800Z,15.50
2018-02-21T17:09:25.408Z,16.80
2018-02-21T17:11:52.022Z,17.20
2018-02-21T17:14:18.623Z,18.07
2018-02-21T17:16:45.234Z,17.40
2018-02-21T17:19:11.954Z,17.73
2018-02-21T17:21:38.717Z,19.40
2018-02-21T17:24:05.369Z,18.53
2018-02-21T17:26:32.166Z,17.87
2018-02-21T17:28:59.020Z,19.83
2018-02-21T17:31:25.764Z,18.97
2018-02-21T17:33:52.516Z,19.27
2018-02-21T17:36:19.205Z,18.67
2018-02-21T17:38:45.854Z,16.93
2018-02-21T17:41:18.152Z,18.67
2018-02-21T17:43:44.797Z,19.87
2018-02-21T17:46:12.217Z,18.00
2018-02-21T17:48:38.988Z,19.53
2018-02-21T17:51:05.880Z,20.20
2018-02-21T17:53:32.526Z,18.63
2018-02-21T17:55:59.158Z,19.73
2018-02-21T17:58:25.832Z,19.40
2018-02-21T18:00:52.443Z,18.93
2018-02-21T18:03:19.180Z,18.93
2018-02-21T18:05:45.914Z,19.87
2018-02-21T18:08:12.552Z,18.00
2018-02-21T18:10:39.206Z,21.23
2018-02-21T18:13:06.665Z,21.10
2018-02-21T18:15:33.294Z,18.50
2018-02-21T18:18:00.240Z,20.43
2018-02-21T18:20:26.962Z,18.80
2018-02-21T18:22:53.804Z,21.60
2018-02-21T18:25:20.472Z,23.23
2018-02-21T18:27:47.318Z,22.13
2018-02-21T18:30:13.953Z,23.90
2018-02-21T18:32:40.596Z,24.10
2018-02-21T18:35:07.301Z,23.77
2018-02-21T18:37:33.885Z,24.83
2018-02-21T18:40:00.642Z,23.57
2018-02-21T18:42:27.345Z,24.87
2018-02-21T18:44:54.156Z,25.37
2018-02-21T18:47:20.849Z,27.33
2018-02-21T18:49:47.536Z,28.13
2018-02-21T18:52:14.123Z,28.47
2018-02-21T18:54:40.793Z,24.30
2018-02-21T18:57:08.631Z,28.60
2018-02-21T18:59:46.317Z,27.77
2018-02-21T19:02:14.399Z,27.63
2018-02-21T19:04:41.702Z,26.37
2018-02-21T19:07:08.415Z,26.87
2018-02-21T19:09:35.150Z,28.70
2018-02-21T19:12:01.763Z,29.80
2018-02-21T19:14:28.720Z,32.30
2018-02-21T19:16:55.456Z,30.60
2018-02-21T19:19:22.096Z,32.27
2018-02-21T19:21:49.337Z,32.03
2018-02-21T19:24:16.008Z,30.37
2018-02-21T19:26:43.397Z,33.27
2018-02-21T19:29:11.144Z,32.73
2018-02-21T19:31:37.913Z,29.47
2018-02-21T19:34:04.538Z,34.23
2018-02-21T19:36:31.691Z,32.40
2018-02-21T19:38:58.387Z,31.47
2018-02-21T19:41:25.165Z,33.50
2018-02-21T19:43:51.869Z,34.17
2018-02-21T19:46:18.724Z,34.60
2018-02-21T19:48:45.726Z,33.90
2018-02-21T19:51:12.355Z,35.73
2018-02-21T19:53:39.110Z,34.00
2018-02-21T19:56:06.162Z,34.10
2018-02-21T19:58:40.117Z,33.47
2018-02-21T20:01:08.120Z,35.00
2018-02-21T20:03:34.778Z,34.73
2018-02-21T20:06:01.539Z,35.47
2018-02-21T20:08:28.345Z,32.93
2018-02-21T20:10:55.108Z,33.20
2018-02-21T20:13:21.775Z,31.20
2018-02-21T20:15:48.648Z,34.43
2018-02-21T20:18:15.393Z,34.73
2018-02-21T20:20:42.637Z,36.90
2018-02-21T20:23:09.347Z,34.53
2018-02-21T20:25:36.028Z,35.33
2018-02-21T20:28:02.718Z,34.10
2018-02-21T20:30:29.470Z,32.87
2018-02-21T20:32:56.095Z,33.20
2018-02-21T20:35:22.746Z,33.43
2018-02-21T20:37:49.354Z,32.83
2018-02-21T20:40:16.130Z,33.30
2018-02-21T20:42:42.810Z,32.50
2018-02-21T20:45:09.476Z,34.10
2018-02-21T20:47:36.129Z,35.07
2018-02-21T20:50:02.778Z,32.97
2018-02-21T20:52:29.489Z,32.50
2018-02-21T20:54:56.180Z,32.97
2018-02-21T20:57:22.793Z,34.83
2018-02-21T20:59:53.564Z,34.60
2018-02-21T21:02:20.302Z,30.17
2018-02-21T21:04:47.029Z,31.57
2018-02-21T21:07:13.686Z,32.50
2018-02-21T21:09:40.353Z,32.57
2018-02-21T21:12:07.168Z,32.07
2018-02-21T21:14:33.883Z,31.27
2018-02-21T21:17:00.676Z,30.23
2018-02-21T21:19:27.361Z,33.63
2018-02-21T21:21:54.132Z,32.53
2018-02-21T21:24:22.264Z,33.40
2018-02-21T21:26:49.176Z,31.37
2018-02-21T21:29:15.940Z,32.43
2018-02-21T21:31:42.765Z,33.53
2018-02-21T21:34:09.540Z,31.20
2018-02-21T21:36:36.430Z,31.90
2018-02-21T21:39:03.076Z,31.37
2018-02-21T21:41:30.197Z,32.87
2018-02-21T21:43:56.831Z,30.80
2018-02-21T21:46:23.498Z,31.97
2018-02-21T21:48:50.169Z,31.00
2018-02-21T21:51:16.809Z,33.07
2018-02-21T21:53:43.536Z,31.77
2018-02-21T21:56:10.637Z,33.20
2018-02-21T21:58:37.282Z,30.70
2018-02-21T22:01:03.874Z,32.87
2018-02-21T22:03:30.518Z,32.20
2018-02-21T22:06:01.069Z,33.10
2018-02-21T22:08:27.910Z,34.90
2018-02-21T22:10:54.642Z,33.37
2018-02-21T22:13:21.405Z,30.63
2018-02-21T22:15:48.085Z,33.37
2018-02-21T22:18:14.736Z,33.27
2018-02-21T22:20:41.413Z,33.50
2018-02-21T22:23:08.166Z,33.73
2018-02-21T22:28:25.798Z,33.07
2018-02-21T22:30:52.483Z,33.90
2018-02-21T22:33:19.162Z,32.83
2018-02-21T22:35:45.781Z,33.10
2018-02-21T22:38:12.402Z,33.80
2018-02-21T22:40:39.014Z,33.30
2018-02-21T22:43:05.621Z,32.23
2018-02-21T22:45:32.245Z,34.80
2018-02-21T22:47:58.851Z,33.20
2018-02-21T22:50:25.464Z,31.37
2018-02-21T22:52:52.181Z,32.93
2018-02-21T22:55:18.784Z,32.77
2018-02-21T22:57:45.406Z,32.10
2018-02-21T23:00:12.030Z,32.00
2018-02-21T23:02:38.652Z,32.30
2018-02-21T23:05:05.236Z,31.27
2018-02-21T23:07:31.855Z,32.10
2018-02-21T23:09:58.504Z,34.23
2018-02-21T23:12:25.915Z,32.17
2018-02-21T23:14:52.618Z,32.13
2018-02-21T23:17:19.250Z,32.27
2018-02-21T23:19:45.848Z,32.77
2018-02-21T23:22:12.472Z,33.30
2018-02-21T23:24:39.143Z,33.40
2018-02-21T23:27:05.752Z,31.17
2018-02-21T23:29:32.398Z,31.00
2018-02-21T23:31:59.004Z,31.20
2018-02-21T23:34:25.633Z,32.40
2018-02-21T23:36:52.245Z,31.10
2018-02-21T23:39:18.910Z,31.67
2018-02-21T23:41:45.523Z,31.77
2018-02-21T23:44:12.156Z,27.77
2018-02-21T23:46:38.736Z,31.10
2018-02-21T23:49:05.368Z,30.13
2018-02-21T23:51:31.977Z,30.37
2018-02-21T23:53:58.572Z,30.13
2018-02-21T23:56:25.202Z,29.50
2018-02-21T23:58:51.808Z,27.93
